sensor_id;sensor_type;location;lat;lon;timestamp;P1;durP1;ratioP1;P2;durP2;ratioP2
32523;SDS011;18965;52.242;20.886;2022-09-09T00:00:54;11.98;;;5.25;;
32523;SDS011;18965;52.242;20.886;2022-09-09T00:03:26;9.45;;;4.95;;
32523;SDS011;18965;52.242;20.886;2022-09-09T00:11:13;11.63;;;5.18;;
32523;SDS011;18965;52.242;20.886;2022-09-09T00:13:46;9.70;;;5.40;;
32523;SDS011;18965;52.242;20.886;2022-09-09T00:16:21;14.05;;;5.88;;
32523;SDS011;18965;52.242;20.886;2022-09-09T00:21:26;11.43;;;5.68;;
32523;SDS011;18965;52.242;20.886;2022-09-09T00:23:58;13.00;;;5.93;;
32523;SDS011;18965;52.242;20.886;2022-09-09T00:29:32;14.98;;;6.20;;
32523;SDS011;18965;52.242;20.886;2022-09-09T00:32:05;12.65;;;6.32;;
32523;SDS011;18965;52.242;20.886;2022-09-09T00:34:50;13.77;;;6.03;;
32523;SDS011;18965;52.242;20.886;2022-09-09T00:37:20;13.80;;;6.03;;
32523;SDS011;18965;52.242;20.886;2022-09-09T00:39:50;16.00;;;6.90;;
32523;SDS011;18965;52.242;20.886;2022-09-09T00:42:26;14.45;;;6.45;;
32523;SDS011;18965;52.242;20.886;2022-09-09T00:47:53;12.73;;;6.65;;
32523;SDS011;18965;52.242;20.886;2022-09-09T00:53:10;12.77;;;6.07;;
32523;SDS011;18965;52.242;20.886;2022-09-09T00:58:14;14.40;;;6.70;;
32523;SDS011;18965;52.242;20.886;2022-09-09T01:08:12;14.65;;;6.97;;
32523;SDS011;18965;52.242;20.886;2022-09-09T01:10:49;14.37;;;6.93;;
32523;SDS011;18965;52.242;20.886;2022-09-09T01:13:27;12.73;;;6.85;;
32523;SDS011;18965;52.242;20.886;2022-09-09T01:15:55;13.82;;;6.78;;
32523;SDS011;18965;52.242;20.886;2022-09-09T01:18:26;12.07;;;6.57;;
32523;SDS011;18965;52.242;20.886;2022-09-09T01:26:39;13.30;;;7.03;;
32523;SDS011;18965;52.242;20.886;2022-09-09T01:29:14;10.48;;;6.40;;
32523;SDS011;18965;52.242;20.886;2022-09-09T01:34:19;15.48;;;7.78;;
32523;SDS011;18965;52.242;20.886;2022-09-09T01:36:51;14.55;;;7.32;;
32523;SDS011;18965;52.242;20.886;2022-09-09T01:39:37;15.02;;;6.93;;
32523;SDS011;18965;52.242;20.886;2022-09-09T01:42:06;12.30;;;6.72;;
32523;SDS011;18965;52.242;20.886;2022-09-09T01:44:34;16.40;;;7.47;;
32523;SDS011;18965;52.242;20.886;2022-09-09T01:47:02;11.15;;;6.78;;
32523;SDS011;18965;52.242;20.886;2022-09-09T01:49:28;23.67;;;9.82;;
32523;SDS011;18965;52.242;20.886;2022-09-09T01:51:54;16.52;;;7.35;;
32523;SDS011;18965;52.242;20.886;2022-09-09T01:54:21;12.98;;;6.85;;
32523;SDS011;18965;52.242;20.886;2022-09-09T02:00:02;14.93;;;7.50;;
32523;SDS011;18965;52.242;20.886;2022-09-09T02:02:44;11.98;;;7.05;;
32523;SDS011;18965;52.242;20.886;2022-09-09T02:05:41;14.27;;;7.15;;
32523;SDS011;18965;52.242;20.886;2022-09-09T02:08:21;16.95;;;7.40;;
32523;SDS011;18965;52.242;20.886;2022-09-09T02:11:24;14.30;;;7.65;;
32523;SDS011;18965;52.242;20.886;2022-09-09T02:13:45;14.63;;;8.10;;
32523;SDS011;18965;52.242;20.886;2022-09-09T02:16:23;16.38;;;7.20;;
32523;SDS011;18965;52.242;20.886;2022-09-09T02:21:37;14.40;;;7.53;;
32523;SDS011;18965;52.242;20.886;2022-09-09T02:24:07;15.57;;;7.93;;
32523;SDS011;18965;52.242;20.886;2022-09-09T02:26:37;15.27;;;8.00;;
32523;SDS011;18965;52.242;20.886;2022-09-09T02:29:11;14.15;;;7.00;;
32523;SDS011;18965;52.242;20.886;2022-09-09T02:31:59;12.45;;;6.97;;
32523;SDS011;18965;52.242;20.886;2022-09-09T02:34:29;12.98;;;7.30;;
32523;SDS011;18965;52.242;20.886;2022-09-09T02:36:57;16.67;;;7.68;;
32523;SDS011;18965;52.242;20.886;2022-09-09T02:39:25;15.68;;;8.32;;
32523;SDS011;18965;52.242;20.886;2022-09-09T02:41:51;13.80;;;7.75;;
32523;SDS011;18965;52.242;20.886;2022-09-09T02:44:17;16.83;;;7.55;;
32523;SDS011;18965;52.242;20.886;2022-09-09T02:49:28;13.02;;;7.78;;
32523;SDS011;18965;52.242;20.886;2022-09-09T02:52:08;13.95;;;7.28;;
32523;SDS011;18965;52.242;20.886;2022-09-09T02:54:42;14.60;;;7.72;;
32523;SDS011;18965;52.242;20.886;2022-09-09T02:57:16;13.57;;;7.22;;
32523;SDS011;18965;52.242;20.886;2022-09-09T02:59:46;14.27;;;7.95;;
32523;SDS011;18965;52.242;20.886;2022-09-09T03:02:13;14.82;;;7.70;;
32523;SDS011;18965;52.242;20.886;2022-09-09T03:04:39;15.07;;;7.18;;
32523;SDS011;18965;52.242;20.886;2022-09-09T03:07:07;14.98;;;7.88;;
32523;SDS011;18965;52.242;20.886;2022-09-09T03:09:33;15.13;;;8.00;;
32523;SDS011;18965;52.242;20.886;2022-09-09T03:11:59;13.98;;;7.30;;
32523;SDS011;18965;52.242;20.886;2022-09-09T03:14:25;17.65;;;7.75;;
32523;SDS011;18965;52.242;20.886;2022-09-09T03:16:51;14.30;;;7.03;;
32523;SDS011;18965;52.242;20.886;2022-09-09T03:19:17;13.10;;;7.07;;
32523;SDS011;18965;52.242;20.886;2022-09-09T03:21:44;15.18;;;6.65;;
32523;SDS011;18965;52.242;20.886;2022-09-09T03:24:10;13.98;;;7.65;;
32523;SDS011;18965;52.242;20.886;2022-09-09T03:26:37;12.18;;;6.43;;
32523;SDS011;18965;52.242;20.886;2022-09-09T03:29:03;13.27;;;6.45;;
32523;SDS011;18965;52.242;20.886;2022-09-09T03:31:31;14.23;;;6.40;;
32523;SDS011;18965;52.242;20.886;2022-09-09T03:33:58;9.77;;;5.70;;
32523;SDS011;18965;52.242;20.886;2022-09-09T03:36:24;9.75;;;5.93;;
32523;SDS011;18965;52.242;20.886;2022-09-09T03:38:52;9.65;;;6.35;;
32523;SDS011;18965;52.242;20.886;2022-09-09T03:41:19;11.25;;;5.78;;
32523;SDS011;18965;52.242;20.886;2022-09-09T03:43:46;10.25;;;6.10;;
32523;SDS011;18965;52.242;20.886;2022-09-09T03:46:11;10.68;;;5.93;;
32523;SDS011;18965;52.242;20.886;2022-09-09T03:48:37;8.38;;;5.55;;
32523;SDS011;18965;52.242;20.886;2022-09-09T03:51:03;9.25;;;5.78;;
32523;SDS011;18965;52.242;20.886;2022-09-09T03:53:28;9.80;;;6.30;;
32523;SDS011;18965;52.242;20.886;2022-09-09T03:55:56;8.00;;;5.70;;
32523;SDS011;18965;52.242;20.886;2022-09-09T03:58:24;11.82;;;5.45;;
32523;SDS011;18965;52.242;20.886;2022-09-09T04:00:58;9.55;;;5.68;;
32523;SDS011;18965;52.242;20.886;2022-09-09T04:03:25;11.00;;;5.90;;
32523;SDS011;18965;52.242;20.886;2022-09-09T04:05:52;9.32;;;6.07;;
32523;SDS011;18965;52.242;20.886;2022-09-09T04:08:19;8.68;;;6.30;;
32523;SDS011;18965;52.242;20.886;2022-09-09T04:10:46;9.38;;;6.10;;
32523;SDS011;18965;52.242;20.886;2022-09-09T04:13:15;9.47;;;6.23;;
32523;SDS011;18965;52.242;20.886;2022-09-09T04:15:43;9.27;;;5.32;;
32523;SDS011;18965;52.242;20.886;2022-09-09T04:18:10;8.43;;;5.20;;
32523;SDS011;18965;52.242;20.886;2022-09-09T04:20:37;9.90;;;6.07;;
32523;SDS011;18965;52.242;20.886;2022-09-09T04:23:03;9.63;;;5.85;;
32523;SDS011;18965;52.242;20.886;2022-09-09T04:25:30;9.10;;;5.55;;
32523;SDS011;18965;52.242;20.886;2022-09-09T04:27:57;10.68;;;6.05;;
32523;SDS011;18965;52.242;20.886;2022-09-09T04:30:23;8.50;;;5.07;;
32523;SDS011;18965;52.242;20.886;2022-09-09T04:32:50;8.70;;;5.53;;
32523;SDS011;18965;52.242;20.886;2022-09-09T04:35:16;10.35;;;5.75;;
32523;SDS011;18965;52.242;20.886;2022-09-09T04:37:41;8.82;;;5.57;;
32523;SDS011;18965;52.242;20.886;2022-09-09T04:40:08;9.07;;;6.03;;
32523;SDS011;18965;52.242;20.886;2022-09-09T04:42:37;10.43;;;5.85;;
32523;SDS011;18965;52.242;20.886;2022-09-09T04:45:04;6.72;;;5.00;;
32523;SDS011;18965;52.242;20.886;2022-09-09T04:47:31;9.38;;;5.63;;
32523;SDS011;18965;52.242;20.886;2022-09-09T04:49:58;9.30;;;5.25;;
32523;SDS011;18965;52.242;20.886;2022-09-09T04:52:24;8.65;;;5.47;;
32523;SDS011;18965;52.242;20.886;2022-09-09T04:54:49;7.53;;;5.22;;
32523;SDS011;18965;52.242;20.886;2022-09-09T04:57:15;10.20;;;5.55;;
32523;SDS011;18965;52.242;20.886;2022-09-09T04:59:41;7.30;;;5.10;;
32523;SDS011;18965;52.242;20.886;2022-09-09T05:02:06;8.55;;;5.90;;
32523;SDS011;18965;52.242;20.886;2022-09-09T05:04:32;10.15;;;6.10;;
32523;SDS011;18965;52.242;20.886;2022-09-09T05:06:58;8.38;;;5.25;;
32523;SDS011;18965;52.242;20.886;2022-09-09T05:09:24;11.48;;;6.57;;
32523;SDS011;18965;52.242;20.886;2022-09-09T05:11:50;8.70;;;5.60;;
32523;SDS011;18965;52.242;20.886;2022-09-09T05:14:16;11.55;;;5.85;;
32523;SDS011;18965;52.242;20.886;2022-09-09T05:16:42;8.45;;;5.22;;
32523;SDS011;18965;52.242;20.886;2022-09-09T05:19:10;8.38;;;5.95;;
32523;SDS011;18965;52.242;20.886;2022-09-09T05:21:36;8.38;;;5.85;;
32523;SDS011;18965;52.242;20.886;2022-09-09T05:24:02;8.30;;;5.03;;
32523;SDS011;18965;52.242;20.886;2022-09-09T05:26:28;7.68;;;5.25;;
32523;SDS011;18965;52.242;20.886;2022-09-09T05:28:54;8.73;;;5.20;;
32523;SDS011;18965;52.242;20.886;2022-09-09T05:31:20;7.57;;;5.40;;
32523;SDS011;18965;52.242;20.886;2022-09-09T05:33:46;7.35;;;5.07;;
32523;SDS011;18965;52.242;20.886;2022-09-09T05:36:15;7.22;;;5.30;;
32523;SDS011;18965;52.242;20.886;2022-09-09T05:38:42;8.18;;;5.13;;
32523;SDS011;18965;52.242;20.886;2022-09-09T05:41:09;9.10;;;5.57;;
32523;SDS011;18965;52.242;20.886;2022-09-09T05:43:36;7.22;;;4.75;;
32523;SDS011;18965;52.242;20.886;2022-09-09T05:46:03;5.55;;;4.63;;
32523;SDS011;18965;52.242;20.886;2022-09-09T05:48:37;7.75;;;5.22;;
32523;SDS011;18965;52.242;20.886;2022-09-09T05:51:09;7.60;;;5.30;;
32523;SDS011;18965;52.242;20.886;2022-09-09T05:53:37;9.15;;;4.78;;
32523;SDS011;18965;52.242;20.886;2022-09-09T05:58:39;5.63;;;4.72;;
32523;SDS011;18965;52.242;20.886;2022-09-09T06:01:13;8.27;;;4.25;;
32523;SDS011;18965;52.242;20.886;2022-09-09T06:03:56;7.28;;;4.50;;
32523;SDS011;18965;52.242;20.886;2022-09-09T06:06:23;8.73;;;4.80;;
32523;SDS011;18965;52.242;20.886;2022-09-09T06:08:57;8.77;;;5.60;;
32523;SDS011;18965;52.242;20.886;2022-09-09T06:11:27;7.47;;;5.05;;
32523;SDS011;18965;52.242;20.886;2022-09-09T06:13:58;8.85;;;4.97;;
32523;SDS011;18965;52.242;20.886;2022-09-09T06:16:24;7.82;;;4.78;;
32523;SDS011;18965;52.242;20.886;2022-09-09T06:18:52;6.65;;;4.05;;
32523;SDS011;18965;52.242;20.886;2022-09-09T06:21:23;6.85;;;4.43;;
32523;SDS011;18965;52.242;20.886;2022-09-09T06:23:50;7.93;;;4.10;;
32523;SDS011;18965;52.242;20.886;2022-09-09T06:26:17;7.55;;;4.38;;
32523;SDS011;18965;52.242;20.886;2022-09-09T06:28:48;8.25;;;4.57;;
32523;SDS011;18965;52.242;20.886;2022-09-09T06:31:16;5.72;;;4.07;;
32523;SDS011;18965;52.242;20.886;2022-09-09T06:33:46;6.97;;;4.30;;
32523;SDS011;18965;52.242;20.886;2022-09-09T06:36:14;6.85;;;4.80;;
32523;SDS011;18965;52.242;20.886;2022-09-09T06:38:49;8.50;;;4.70;;
32523;SDS011;18965;52.242;20.886;2022-09-09T06:41:16;9.45;;;5.05;;
32523;SDS011;18965;52.242;20.886;2022-09-09T06:43:43;6.93;;;4.93;;
32523;SDS011;18965;52.242;20.886;2022-09-09T06:46:10;9.48;;;5.13;;
32523;SDS011;18965;52.242;20.886;2022-09-09T06:48:39;7.75;;;4.95;;
32523;SDS011;18965;52.242;20.886;2022-09-09T06:51:13;7.55;;;5.03;;
32523;SDS011;18965;52.242;20.886;2022-09-09T06:53:43;8.57;;;4.88;;
32523;SDS011;18965;52.242;20.886;2022-09-09T06:58:37;6.43;;;5.03;;
32523;SDS011;18965;52.242;20.886;2022-09-09T07:01:09;6.95;;;4.70;;
32523;SDS011;18965;52.242;20.886;2022-09-09T07:03:37;8.27;;;5.18;;
32523;SDS011;18965;52.242;20.886;2022-09-09T07:06:04;7.95;;;5.15;;
32523;SDS011;18965;52.242;20.886;2022-09-09T07:08:30;7.60;;;5.13;;
32523;SDS011;18965;52.242;20.886;2022-09-09T07:11:06;7.03;;;5.22;;
32523;SDS011;18965;52.242;20.886;2022-09-09T07:13:33;6.57;;;5.43;;
32523;SDS011;18965;52.242;20.886;2022-09-09T07:16:12;8.32;;;5.22;;
32523;SDS011;18965;52.242;20.886;2022-09-09T07:18:41;8.27;;;5.88;;
32523;SDS011;18965;52.242;20.886;2022-09-09T07:21:08;9.30;;;6.55;;
32523;SDS011;18965;52.242;20.886;2022-09-09T07:23:35;7.78;;;5.50;;
32523;SDS011;18965;52.242;20.886;2022-09-09T07:26:01;8.18;;;5.65;;
32523;SDS011;18965;52.242;20.886;2022-09-09T07:28:32;8.38;;;5.68;;
32523;SDS011;18965;52.242;20.886;2022-09-09T07:30:58;8.50;;;6.05;;
32523;SDS011;18965;52.242;20.886;2022-09-09T07:33:28;8.80;;;6.07;;
32523;SDS011;18965;52.242;20.886;2022-09-09T07:36:08;7.65;;;5.85;;
32523;SDS011;18965;52.242;20.886;2022-09-09T07:38:39;7.43;;;5.70;;
32523;SDS011;18965;52.242;20.886;2022-09-09T07:41:10;8.65;;;5.78;;
32523;SDS011;18965;52.242;20.886;2022-09-09T07:43:42;8.85;;;5.97;;
32523;SDS011;18965;52.242;20.886;2022-09-09T07:46:10;10.80;;;5.40;;
32523;SDS011;18965;52.242;20.886;2022-09-09T07:48:37;8.43;;;6.13;;
32523;SDS011;18965;52.242;20.886;2022-09-09T07:51:10;7.70;;;5.68;;
32523;SDS011;18965;52.242;20.886;2022-09-09T07:53:45;8.98;;;6.07;;
32523;SDS011;18965;52.242;20.886;2022-09-09T07:56:15;9.90;;;6.57;;
32523;SDS011;18965;52.242;20.886;2022-09-09T07:58:42;11.23;;;7.43;;
32523;SDS011;18965;52.242;20.886;2022-09-09T08:01:14;9.88;;;6.50;;
32523;SDS011;18965;52.242;20.886;2022-09-09T08:03:46;12.32;;;6.07;;
32523;SDS011;18965;52.242;20.886;2022-09-09T08:06:17;12.45;;;6.95;;
32523;SDS011;18965;52.242;20.886;2022-09-09T08:08:43;10.25;;;6.70;;
32523;SDS011;18965;52.242;20.886;2022-09-09T08:13:36;12.13;;;7.13;;
32523;SDS011;18965;52.242;20.886;2022-09-09T08:16:04;11.90;;;8.35;;
32523;SDS011;18965;52.242;20.886;2022-09-09T08:18:39;11.32;;;7.28;;
32523;SDS011;18965;52.242;20.886;2022-09-09T08:21:10;13.50;;;7.80;;
32523;SDS011;18965;52.242;20.886;2022-09-09T08:23:42;10.23;;;7.25;;
32523;SDS011;18965;52.242;20.886;2022-09-09T08:28:41;11.85;;;7.30;;
32523;SDS011;18965;52.242;20.886;2022-09-09T08:31:14;11.40;;;7.20;;
32523;SDS011;18965;52.242;20.886;2022-09-09T08:33:41;15.05;;;8.15;;
32523;SDS011;18965;52.242;20.886;2022-09-09T08:36:12;12.73;;;7.97;;
32523;SDS011;18965;52.242;20.886;2022-09-09T08:38:40;15.02;;;8.25;;
32523;SDS011;18965;52.242;20.886;2022-09-09T08:41:12;11.48;;;7.75;;
32523;SDS011;18965;52.242;20.886;2022-09-09T08:44:06;11.77;;;7.85;;
32523;SDS011;18965;52.242;20.886;2022-09-09T08:52:19;13.55;;;8.18;;
32523;SDS011;18965;52.242;20.886;2022-09-09T08:54:50;13.68;;;8.45;;
32523;SDS011;18965;52.242;20.886;2022-09-09T08:57:21;15.45;;;8.80;;
32523;SDS011;18965;52.242;20.886;2022-09-09T08:59:51;16.77;;;9.00;;
32523;SDS011;18965;52.242;20.886;2022-09-09T09:02:21;12.73;;;8.52;;
32523;SDS011;18965;52.242;20.886;2022-09-09T09:07:24;18.30;;;9.30;;
32523;SDS011;18965;52.242;20.886;2022-09-09T09:10:15;21.45;;;12.73;;
32523;SDS011;18965;52.242;20.886;2022-09-09T09:12:51;17.23;;;9.65;;
32523;SDS011;18965;52.242;20.886;2022-09-09T09:15:23;14.90;;;9.43;;
32523;SDS011;18965;52.242;20.886;2022-09-09T09:17:51;16.40;;;9.27;;
32523;SDS011;18965;52.242;20.886;2022-09-09T09:20:18;18.83;;;9.52;;
32523;SDS011;18965;52.242;20.886;2022-09-09T09:22:53;17.10;;;10.15;;
32523;SDS011;18965;52.242;20.886;2022-09-09T09:25:26;15.82;;;9.43;;
32523;SDS011;18965;52.242;20.886;2022-09-09T09:30:34;16.13;;;10.05;;
32523;SDS011;18965;52.242;20.886;2022-09-09T09:35:52;18.27;;;10.70;;
32523;SDS011;18965;52.242;20.886;2022-09-09T09:38:22;19.33;;;10.57;;
32523;SDS011;18965;52.242;20.886;2022-09-09T09:40:51;18.70;;;11.30;;
32523;SDS011;18965;52.242;20.886;2022-09-09T09:43:22;17.73;;;10.35;;
32523;SDS011;18965;52.242;20.886;2022-09-09T09:45:59;17.50;;;11.13;;
32523;SDS011;18965;52.242;20.886;2022-09-09T09:48:25;19.40;;;12.02;;
32523;SDS011;18965;52.242;20.886;2022-09-09T09:50:54;20.52;;;11.80;;
32523;SDS011;18965;52.242;20.886;2022-09-09T09:53:25;17.48;;;11.05;;
32523;SDS011;18965;52.242;20.886;2022-09-09T09:55:56;19.73;;;11.07;;
32523;SDS011;18965;52.242;20.886;2022-09-09T09:58:25;16.48;;;10.25;;
32523;SDS011;18965;52.242;20.886;2022-09-09T10:00:53;18.10;;;11.63;;
32523;SDS011;18965;52.242;20.886;2022-09-09T10:03:26;174.93;;;18.77;;
32523;SDS011;18965;52.242;20.886;2022-09-09T10:05:55;32.38;;;12.35;;
32523;SDS011;18965;52.242;20.886;2022-09-09T10:08:22;20.80;;;11.77;;
32523;SDS011;18965;52.242;20.886;2022-09-09T10:10:57;18.15;;;12.02;;
32523;SDS011;18965;52.242;20.886;2022-09-09T10:14:16;15.93;;;11.13;;
32523;SDS011;18965;52.242;20.886;2022-09-09T10:19:09;21.33;;;11.77;;
32523;SDS011;18965;52.242;20.886;2022-09-09T10:30:00;17.80;;;11.65;;
32523;SDS011;18965;52.242;20.886;2022-09-09T10:35:30;19.30;;;12.57;;
32523;SDS011;18965;52.242;20.886;2022-09-09T10:38:14;23.52;;;12.82;;
32523;SDS011;18965;52.242;20.886;2022-09-09T10:54:56;28.13;;;15.00;;
32523;SDS011;18965;52.242;20.886;2022-09-09T11:00:20;21.00;;;13.15;;
32523;SDS011;18965;52.242;20.886;2022-09-09T11:03:04;21.98;;;12.73;;
32523;SDS011;18965;52.242;20.886;2022-09-09T11:05:51;21.80;;;13.90;;
32523;SDS011;18965;52.242;20.886;2022-09-09T11:08:28;25.60;;;13.98;;
32523;SDS011;18965;52.242;20.886;2022-09-09T11:11:12;22.20;;;13.93;;
32523;SDS011;18965;52.242;20.886;2022-09-09T11:19:09;30.95;;;16.63;;
32523;SDS011;18965;52.242;20.886;2022-09-09T11:21:46;27.88;;;14.77;;
32523;SDS011;18965;52.242;20.886;2022-09-09T11:24:22;28.98;;;16.10;;
32523;SDS011;18965;52.242;20.886;2022-09-09T11:38:13;31.48;;;16.33;;
32523;SDS011;18965;52.242;20.886;2022-09-09T11:40:59;30.52;;;15.88;;
32523;SDS011;18965;52.242;20.886;2022-09-09T11:43:44;29.23;;;15.15;;
32523;SDS011;18965;52.242;20.886;2022-09-09T11:46:19;28.83;;;15.70;;
32523;SDS011;18965;52.242;20.886;2022-09-09T11:49:01;28.80;;;15.45;;
32523;SDS011;18965;52.242;20.886;2022-09-09T11:51:30;29.85;;;15.77;;
32523;SDS011;18965;52.242;20.886;2022-09-09T11:56:55;29.35;;;15.35;;
32523;SDS011;18965;52.242;20.886;2022-09-09T12:06:58;35.15;;;16.85;;
32523;SDS011;18965;52.242;20.886;2022-09-09T12:17:23;34.15;;;17.63;;
32523;SDS011;18965;52.242;20.886;2022-09-09T12:20:00;30.98;;;16.77;;
32523;SDS011;18965;52.242;20.886;2022-09-09T12:25:22;30.83;;;17.05;;
32523;SDS011;18965;52.242;20.886;2022-09-09T12:30:30;30.10;;;17.58;;
32523;SDS011;18965;52.242;20.886;2022-09-09T12:33:16;34.55;;;17.17;;
32523;SDS011;18965;52.242;20.886;2022-09-09T12:35:44;32.03;;;18.15;;
32523;SDS011;18965;52.242;20.886;2022-09-09T12:38:20;35.38;;;19.45;;
32523;SDS011;18965;52.242;20.886;2022-09-09T12:40:59;41.03;;;19.08;;
32523;SDS011;18965;52.242;20.886;2022-09-09T12:43:26;34.55;;;19.23;;
32523;SDS011;18965;52.242;20.886;2022-09-09T12:45:57;35.70;;;19.15;;
32523;SDS011;18965;52.242;20.886;2022-09-09T12:51:06;34.45;;;18.95;;
32523;SDS011;18965;52.242;20.886;2022-09-09T12:53:50;34.67;;;18.38;;
32523;SDS011;18965;52.242;20.886;2022-09-09T12:56:35;37.58;;;19.63;;
32523;SDS011;18965;52.242;20.886;2022-09-09T12:59:01;31.38;;;18.13;;
32523;SDS011;18965;52.242;20.886;2022-09-09T13:01:28;38.40;;;18.98;;
32523;SDS011;18965;52.242;20.886;2022-09-09T13:03:56;44.10;;;18.60;;
32523;SDS011;18965;52.242;20.886;2022-09-09T13:06:23;37.15;;;19.00;;
32523;SDS011;18965;52.242;20.886;2022-09-09T13:08:51;34.72;;;17.85;;
32523;SDS011;18965;52.242;20.886;2022-09-09T13:11:29;38.05;;;20.50;;
32523;SDS011;18965;52.242;20.886;2022-09-09T13:13:59;34.47;;;18.73;;
32523;SDS011;18965;52.242;20.886;2022-09-09T13:16:28;39.70;;;19.13;;
32523;SDS011;18965;52.242;20.886;2022-09-09T13:18:56;37.92;;;19.65;;
32523;SDS011;18965;52.242;20.886;2022-09-09T13:21:34;36.63;;;19.30;;
32523;SDS011;18965;52.242;20.886;2022-09-09T13:24:04;38.97;;;19.23;;
32523;SDS011;18965;52.242;20.886;2022-09-09T13:26:33;39.88;;;19.85;;
32523;SDS011;18965;52.242;20.886;2022-09-09T13:29:18;39.35;;;19.63;;
32523;SDS011;18965;52.242;20.886;2022-09-09T13:31:44;38.33;;;20.67;;
32523;SDS011;18965;52.242;20.886;2022-09-09T13:34:32;34.25;;;18.10;;
32523;SDS011;18965;52.242;20.886;2022-09-09T13:37:01;36.70;;;20.08;;
32523;SDS011;18965;52.242;20.886;2022-09-09T13:39:31;38.22;;;19.55;;
32523;SDS011;18965;52.242;20.886;2022-09-09T13:41:59;35.38;;;18.52;;
32523;SDS011;18965;52.242;20.886;2022-09-09T13:44:35;41.75;;;20.35;;
32523;SDS011;18965;52.242;20.886;2022-09-09T13:47:20;33.88;;;19.20;;
32523;SDS011;18965;52.242;20.886;2022-09-09T13:50:20;38.72;;;19.67;;
32523;SDS011;18965;52.242;20.886;2022-09-09T13:52:47;39.38;;;19.85;;
32523;SDS011;18965;52.242;20.886;2022-09-09T13:55:15;38.53;;;19.80;;
32523;SDS011;18965;52.242;20.886;2022-09-09T13:57:50;39.95;;;21.08;;
32523;SDS011;18965;52.242;20.886;2022-09-09T14:00:20;31.40;;;17.48;;
32523;SDS011;18965;52.242;20.886;2022-09-09T14:02:47;35.53;;;19.08;;
32523;SDS011;18965;52.242;20.886;2022-09-09T14:05:13;40.20;;;20.55;;
32523;SDS011;18965;52.242;20.886;2022-09-09T14:07:41;40.95;;;19.40;;
32523;SDS011;18965;52.242;20.886;2022-09-09T14:10:07;37.90;;;20.08;;
32523;SDS011;18965;52.242;20.886;2022-09-09T14:12:34;41.13;;;20.23;;
32523;SDS011;18965;52.242;20.886;2022-09-09T14:15:01;39.83;;;19.58;;
32523;SDS011;18965;52.242;20.886;2022-09-09T14:17:28;39.88;;;19.42;;
32523;SDS011;18965;52.242;20.886;2022-09-09T14:19:56;40.75;;;19.02;;
32523;SDS011;18965;52.242;20.886;2022-09-09T14:22:22;38.28;;;19.40;;
32523;SDS011;18965;52.242;20.886;2022-09-09T14:24:49;41.30;;;19.02;;
32523;SDS011;18965;52.242;20.886;2022-09-09T14:27:16;36.53;;;18.58;;
32523;SDS011;18965;52.242;20.886;2022-09-09T14:29:43;34.92;;;17.98;;
32523;SDS011;18965;52.242;20.886;2022-09-09T14:32:09;39.15;;;18.05;;
32523;SDS011;18965;52.242;20.886;2022-09-09T14:34:36;37.08;;;19.35;;
32523;SDS011;18965;52.242;20.886;2022-09-09T14:37:02;36.75;;;18.15;;
32523;SDS011;18965;52.242;20.886;2022-09-09T14:39:28;38.00;;;18.17;;
32523;SDS011;18965;52.242;20.886;2022-09-09T14:41:53;37.80;;;19.23;;
32523;SDS011;18965;52.242;20.886;2022-09-09T14:44:19;34.53;;;17.35;;
32523;SDS011;18965;52.242;20.886;2022-09-09T14:46:45;35.63;;;18.85;;
32523;SDS011;18965;52.242;20.886;2022-09-09T14:49:11;39.47;;;18.40;;
32523;SDS011;18965;52.242;20.886;2022-09-09T14:51:37;36.22;;;18.10;;
32523;SDS011;18965;52.242;20.886;2022-09-09T14:54:04;37.45;;;18.95;;
32523;SDS011;18965;52.242;20.886;2022-09-09T14:56:32;37.95;;;18.45;;
32523;SDS011;18965;52.242;20.886;2022-09-09T14:59:01;39.80;;;19.52;;
32523;SDS011;18965;52.242;20.886;2022-09-09T15:01:27;32.33;;;17.48;;
32523;SDS011;18965;52.242;20.886;2022-09-09T15:03:55;37.00;;;18.20;;
32523;SDS011;18965;52.242;20.886;2022-09-09T15:06:23;35.22;;;17.20;;
32523;SDS011;18965;52.242;20.886;2022-09-09T15:08:51;33.45;;;17.30;;
32523;SDS011;18965;52.242;20.886;2022-09-09T15:11:17;40.92;;;17.42;;
32523;SDS011;18965;52.242;20.886;2022-09-09T15:13:45;33.00;;;16.55;;
32523;SDS011;18965;52.242;20.886;2022-09-09T15:18:39;35.58;;;16.88;;
32523;SDS011;18965;52.242;20.886;2022-09-09T15:21:08;35.83;;;16.92;;
32523;SDS011;18965;52.242;20.886;2022-09-09T15:23:35;33.20;;;16.83;;
32523;SDS011;18965;52.242;20.886;2022-09-09T15:26:01;32.15;;;16.73;;
32523;SDS011;18965;52.242;20.886;2022-09-09T15:28:27;34.75;;;17.65;;
32523;SDS011;18965;52.242;20.886;2022-09-09T15:30:53;31.55;;;16.95;;
32523;SDS011;18965;52.242;20.886;2022-09-09T15:33:20;28.15;;;15.75;;
32523;SDS011;18965;52.242;20.886;2022-09-09T15:35:47;31.58;;;15.80;;
32523;SDS011;18965;52.242;20.886;2022-09-09T15:38:14;32.50;;;17.08;;
32523;SDS011;18965;52.242;20.886;2022-09-09T15:40:41;33.80;;;17.60;;
32523;SDS011;18965;52.242;20.886;2022-09-09T15:43:07;36.28;;;18.60;;
32523;SDS011;18965;52.242;20.886;2022-09-09T15:45:38;34.33;;;19.70;;
32523;SDS011;18965;52.242;20.886;2022-09-09T15:48:04;37.53;;;19.20;;
32523;SDS011;18965;52.242;20.886;2022-09-09T15:50:30;36.30;;;17.50;;
32523;SDS011;18965;52.242;20.886;2022-09-09T15:52:56;36.67;;;19.17;;
32523;SDS011;18965;52.242;20.886;2022-09-09T15:55:24;38.47;;;18.20;;
32523;SDS011;18965;52.242;20.886;2022-09-09T15:57:50;33.30;;;17.20;;
32523;SDS011;18965;52.242;20.886;2022-09-09T16:00:20;31.80;;;16.95;;
32523;SDS011;18965;52.242;20.886;2022-09-09T16:02:46;31.58;;;17.30;;
32523;SDS011;18965;52.242;20.886;2022-09-09T16:05:13;29.77;;;16.40;;
32523;SDS011;18965;52.242;20.886;2022-09-09T16:07:38;29.80;;;16.95;;
32523;SDS011;18965;52.242;20.886;2022-09-09T16:10:07;31.95;;;16.13;;
32523;SDS011;18965;52.242;20.886;2022-09-09T16:12:34;31.58;;;16.55;;
32523;SDS011;18965;52.242;20.886;2022-09-09T16:14:59;31.02;;;17.52;;
32523;SDS011;18965;52.242;20.886;2022-09-09T16:17:26;32.92;;;17.38;;
32523;SDS011;18965;52.242;20.886;2022-09-09T16:19:52;31.95;;;17.25;;
32523;SDS011;18965;52.242;20.886;2022-09-09T16:22:19;33.28;;;17.80;;
32523;SDS011;18965;52.242;20.886;2022-09-09T16:24:45;31.75;;;17.20;;
32523;SDS011;18965;52.242;20.886;2022-09-09T16:27:11;34.33;;;17.13;;
32523;SDS011;18965;52.242;20.886;2022-09-09T16:29:36;34.55;;;17.95;;
32523;SDS011;18965;52.242;20.886;2022-09-09T16:32:03;29.65;;;16.55;;
32523;SDS011;18965;52.242;20.886;2022-09-09T16:34:28;33.78;;;18.52;;
32523;SDS011;18965;52.242;20.886;2022-09-09T16:36:54;33.80;;;18.63;;
32523;SDS011;18965;52.242;20.886;2022-09-09T16:39:20;33.13;;;18.45;;
32523;SDS011;18965;52.242;20.886;2022-09-09T16:41:46;28.95;;;15.88;;
32523;SDS011;18965;52.242;20.886;2022-09-09T16:44:14;31.67;;;17.02;;
32523;SDS011;18965;52.242;20.886;2022-09-09T16:46:42;31.58;;;17.13;;
32523;SDS011;18965;52.242;20.886;2022-09-09T16:49:09;32.72;;;16.73;;
32523;SDS011;18965;52.242;20.886;2022-09-09T16:51:37;31.30;;;16.92;;
32523;SDS011;18965;52.242;20.886;2022-09-09T16:54:12;33.33;;;17.33;;
32523;SDS011;18965;52.242;20.886;2022-09-09T16:56:39;32.97;;;17.90;;
32523;SDS011;18965;52.242;20.886;2022-09-09T16:59:19;38.70;;;18.40;;